Time;durP1;ratioP1;P1;durP2;ratioP2;P2;SDS_P1;SDS_P2;PMS_P1;PMS_P2;Temp;Humidity;BMP_temperature;BMP_pressure;BME280_temperature;BME280_humidity;BME280_pressure;Samples;Min_cycle;Max_cycle;Signal;HPM_P1;HPM_P2
2021/04/28 00:00:41;;;;;;;4.05;2.65;;;;;;;;;;1476360;40;20432;-89
2021/04/28 00:01:45;;;;;;;3.08;2.28;;;;;;;;;;1471933;40;20406;-87
2021/04/28 00:02:46;;;;;;;4.63;2.63;;;;;;;;;;1472165;40;20461;-89
2021/04/28 00:03:48;;;;;;;5.53;2.47;;;;;;;;;;1474094;40;20444;-86
2021/04/28 00:04:49;;;;;;;3.70;2.50;;;;;;;;;;1472116;40;20445;-91
2021/04/28 00:05:50;;;;;;;3.40;2.30;;;;;;;;;;1477046;40;20824;-90
2021/04/28 00:06:51;;;;;;;3.67;2.70;;;;;;;;;;1476392;40;20406;-88
2021/04/28 00:07:55;;;;;;;5.63;2.30;;;;;;;;;;1472448;40;20495;-88
2021/04/28 00:08:56;;;;;;;5.30;2.55;;;;;;;;;;1476070;40;20406;-90
2021/04/28 00:09:57;;;;;;;4.38;2.45;;;;;;;;;;1479876;40;20465;-89
2021/04/28 00:10:58;;;;;;;2.92;2.10;;;;;;;;;;1478011;40;20432;-91
2021/04/28 00:12:00;;;;;;;4.13;2.17;;;;;;;;;;1475812;40;20523;-89
2021/04/28 00:13:01;;;;;;;2.97;2.37;;;;;;;;;;1478434;40;20402;-90
2021/04/28 00:14:03;;;;;;;3.15;2.55;;;;;;;;;;1481893;40;20445;-90
2021/04/28 00:15:06;;;;;;;3.70;2.80;;;;;;;;;;1484035;40;20425;-89
2021/04/28 00:16:07;;;;;;;4.97;3.00;;;;;;;;;;1482513;40;20410;-91
2021/04/28 00:17:09;;;;;;;6.72;2.55;;;;;;;;;;1480832;40;20687;-91
2021/04/28 00:18:11;;;;;;;3.83;2.55;;;;;;;;;;1480096;40;20459;-91
2021/04/28 00:19:14;;;;;;;4.10;2.63;;;;;;;;;;1480602;40;20402;-87
2021/04/28 00:20:16;;;;;;;3.70;2.13;;;;;;;;;;1484126;40;20406;-88
2021/04/28 00:21:17;;;;;;;3.20;2.58;;;;;;;;;;1481089;40;20431;-88
2021/04/28 00:22:18;;;;;;;4.72;2.63;;;;;;;;;;1478305;40;20786;-89
2021/04/28 00:23:19;;;;;;;3.03;1.92;;;;;;;;;;1475742;40;20669;-91
2021/04/28 00:24:20;;;;;;;4.88;2.55;;;;;;;;;;1472208;40;20390;-88
2021/04/28 00:25:22;;;;;;;3.88;2.33;;;;;;;;;;1475884;40;20436;-89
2021/04/28 00:26:23;;;;;;;3.63;2.13;;;;;;;;;;1476917;40;20844;-91
2021/04/28 00:27:25;;;;;;;2.92;2.25;;;;;;;;;;1479061;40;20446;-90
2021/04/28 00:28:34;;;;;;;3.25;2.35;;;;;;;;;;1475705;40;20380;-90
2021/04/28 00:29:35;;;;;;;3.75;2.40;;;;;;;;;;1476317;40;20404;-91
2021/04/28 00:30:38;;;;;;;5.53;2.90;;;;;;;;;;1478571;40;21025;-89
2021/04/28 00:31:39;;;;;;;3.07;1.93;;;;;;;;;;1477915;40;20476;-89
2021/04/28 00:32:40;;;;;;;5.78;2.38;;;;;;;;;;1472401;40;20838;-90
2021/04/28 00:33:42;;;;;;;5.05;2.25;;;;;;;;;;1474375;40;20658;-89
2021/04/28 00:34:43;;;;;;;5.63;2.67;;;;;;;;;;1481167;40;20442;-88
2021/04/28 00:35:45;;;;;;;4.22;2.85;;;;;;;;;;1482755;40;20404;-88
2021/04/28 00:36:46;;;;;;;4.65;2.58;;;;;;;;;;1481625;40;20500;-88
2021/04/28 00:37:49;;;;;;;2.80;2.47;;;;;;;;;;1482031;40;20419;-88
2021/04/28 00:38:50;;;;;;;4.03;2.38;;;;;;;;;;1481494;40;20468;-90
2021/04/28 00:39:52;;;;;;;3.80;2.58;;;;;;;;;;1481614;40;20410;-89
2021/04/28 00:40:53;;;;;;;5.78;2.63;;;;;;;;;;1474280;40;20814;-90
2021/04/28 00:41:54;;;;;;;7.32;2.45;;;;;;;;;;1474997;40;20408;-89
2021/04/28 00:42:55;;;;;;;3.85;2.92;;;;;;;;;;1475963;40;20407;-90
2021/04/28 00:43:56;;;;;;;5.07;2.30;;;;;;;;;;1475574;40;20640;-89
2021/04/28 00:44:58;;;;;;;5.43;2.90;;;;;;;;;;1475682;40;20491;-88
2021/04/28 00:46:02;;;;;;;4.40;2.20;;;;;;;;;;1475645;40;20785;-90
2021/04/28 00:47:03;;;;;;;2.83;2.42;;;;;;;;;;1475501;40;20440;-88
2021/04/28 00:48:05;;;;;;;5.80;2.70;;;;;;;;;;1473002;40;20408;-90
2021/04/28 00:49:07;;;;;;;5.18;2.30;;;;;;;;;;1478067;40;20406;-91
2021/04/28 00:50:13;;;;;;;4.30;2.47;;;;;;;;;;1479929;40;20414;-90
2021/04/28 00:51:14;;;;;;;4.93;2.85;;;;;;;;;;1480266;40;20836;-91
2021/04/28 00:52:15;;;;;;;5.78;2.60;;;;;;;;;;1480461;40;20462;-91
2021/04/28 00:53:18;;;;;;;2.92;2.53;;;;;;;;;;1480001;40;20417;-91
2021/04/28 00:54:19;;;;;;;3.90;2.20;;;;;;;;;;1476535;40;20408;-89
2021/04/28 00:55:20;;;;;;;2.67;2.20;;;;;;;;;;1471815;40;20402;-92
2021/04/28 00:56:21;;;;;;;4.43;2.70;;;;;;;;;;1477405;40;20419;-90
2021/04/28 00:57:22;;;;;;;3.53;2.53;;;;;;;;;;1483906;40;20412;-92
2021/04/28 00:58:25;;;;;;;3.05;2.75;;;;;;;;;;1473098;40;20406;-91
2021/04/28 00:59:26;;;;;;;5.15;2.80;;;;;;;;;;1472603;40;20493;-91
2021/04/28 01:00:28;;;;;;;5.45;2.50;;;;;;;;;;1471891;40;20413;-93
2021/04/28 01:01:29;;;;;;;8.93;2.67;;;;;;;;;;1472304;40;20409;-90
2021/04/28 01:02:30;;;;;;;4.50;2.85;;;;;;;;;;1478751;40;20401;-92
2021/04/28 01:03:31;;;;;;;5.25;2.20;;;;;;;;;;1475531;40;20424;-92
2021/04/28 01:04:32;;;;;;;3.28;2.70;;;;;;;;;;1471751;40;20525;-91
2021/04/28 01:05:34;;;;;;;4.55;2.90;;;;;;;;;;1475675;40;20412;-92
2021/04/28 01:06:35;;;;;;;3.95;3.20;;;;;;;;;;1475864;40;20415;-91
2021/04/28 01:07:36;;;;;;;5.35;2.90;;;;;;;;;;1471474;40;20410;-91
2021/04/28 01:08:40;;;;;;;4.18;2.95;;;;;;;;;;1475023;40;20405;-90
2021/04/28 01:09:41;;;;;;;2.70;2.38;;;;;;;;;;1475434;40;20412;-91
2021/04/28 01:10:43;;;;;;;3.88;2.50;;;;;;;;;;1472889;40;20421;-92
2021/04/28 01:11:44;;;;;;;6.18;2.58;;;;;;;;;;1477303;40;20396;-88
2021/04/28 01:12:45;;;;;;;3.78;2.78;;;;;;;;;;1477162;40;20408;-88
2021/04/28 01:13:47;;;;;;;3.78;2.35;;;;;;;;;;1475824;40;20742;-88
2021/04/28 01:14:50;;;;;;;3.22;2.47;;;;;;;;;;1475852;40;20423;-88
2021/04/28 01:15:51;;;;;;;5.88;2.95;;;;;;;;;;1476301;40;21008;-87
2021/04/28 01:16:53;;;;;;;4.72;2.45;;;;;;;;;;1475380;40;20406;-90
2021/04/28 01:17:55;;;;;;;4.97;2.75;;;;;;;;;;1472884;40;20473;-90
2021/04/28 01:18:56;;;;;;;2.58;2.38;;;;;;;;;;1480594;40;20863;-90
2021/04/28 01:19:58;;;;;;;5.13;2.85;;;;;;;;;;1479427;40;20414;-91
2021/04/28 01:20:59;;;;;;;4.10;2.53;;;;;;;;;;1475972;40;20404;-92
2021/04/28 01:22:00;;;;;;;5.43;2.75;;;;;;;;;;1475675;40;20492;-91
2021/04/28 01:23:01;;;;;;;4.57;2.70;;;;;;;;;;1480423;40;20406;-91
2021/04/28 01:24:04;;;;;;;4.13;3.08;;;;;;;;;;1474979;40;20428;-86
2021/04/28 01:25:05;;;;;;;4.13;2.53;;;;;;;;;;1471604;40;20429;-91
2021/04/28 01:26:08;;;;;;;3.90;2.63;;;;;;;;;;1474140;40;20495;-90
2021/04/28 01:27:12;;;;;;;4.28;2.70;;;;;;;;;;1477139;40;20412;-88
2021/04/28 01:28:24;;;;;;;4.60;2.78;;;;;;;;;;1477711;40;20431;-91
2021/04/28 01:29:25;;;;;;;3.45;2.85;;;;;;;;;;1478254;40;20384;-89
2021/04/28 01:30:33;;;;;;;4.78;2.75;;;;;;;;;;1478753;40;20440;-90
2021/04/28 01:31:35;;;;;;;4.40;2.58;;;;;;;;;;1482811;40;20383;-89
2021/04/28 01:32:38;;;;;;;3.83;2.70;;;;;;;;;;1486196;40;20401;-89
2021/04/28 01:33:42;;;;;;;4.32;2.80;;;;;;;;;;1480006;40;20428;-90
2021/04/28 01:34:44;;;;;;;5.43;2.53;;;;;;;;;;1481730;40;20445;-90
2021/04/28 01:35:46;;;;;;;3.75;2.22;;;;;;;;;;1478156;40;20478;-88
2021/04/28 01:36:48;;;;;;;3.78;2.83;;;;;;;;;;1479173;40;20424;-85
2021/04/28 01:37:49;;;;;;;4.18;3.08;;;;;;;;;;1479726;40;20491;-87
2021/04/28 01:38:51;;;;;;;3.85;2.78;;;;;;;;;;1483407;40;20405;-89
2021/04/28 01:39:52;;;;;;;3.10;2.65;;;;;;;;;;1483715;40;20429;-86
2021/04/28 01:40:54;;;;;;;7.47;2.83;;;;;;;;;;1478857;40;20403;-88
2021/04/28 01:41:55;;;;;;;3.22;2.80;;;;;;;;;;1479727;40;20439;-88
2021/04/28 01:42:57;;;;;;;5.30;3.30;;;;;;;;;;1483732;40;20402;-88
2021/04/28 01:43:58;;;;;;;4.75;2.78;;;;;;;;;;1484208;40;20413;-89
2021/04/28 01:45:00;;;;;;;3.25;2.60;;;;;;;;;;1479910;40;20398;-90
2021/04/28 01:46:02;;;;;;;6.47;2.90;;;;;;;;;;1474683;40;20417;-86
2021/04/28 01:47:03;;;;;;;5.88;2.55;;;;;;;;;;1478562;40;20412;-89
2021/04/28 01:48:06;;;;;;;2.97;2.60;;;;;;;;;;1478277;40;20440;-90
2021/04/28 01:49:09;;;;;;;4.57;3.20;;;;;;;;;;1476217;40;20588;-90
2021/04/28 01:50:11;;;;;;;3.95;2.70;;;;;;;;;;1475010;40;20794;-89
2021/04/28 01:51:13;;;;;;;4.07;2.90;;;;;;;;;;1479686;40;20402;-89
2021/04/28 01:52:14;;;;;;;5.35;2.38;;;;;;;;;;1475834;40;20415;-89
2021/04/28 01:53:16;;;;;;;3.85;3.00;;;;;;;;;;1472827;40;20410;-86
2021/04/28 01:54:18;;;;;;;4.05;2.63;;;;;;;;;;1467162;40;20416;-89
2021/04/28 01:55:19;;;;;;;5.43;3.20;;;;;;;;;;1471517;40;20411;-88
2021/04/28 01:56:21;;;;;;;3.50;3.10;;;;;;;;;;1478418;40;20412;-88
2021/04/28 01:57:24;;;;;;;5.97;3.10;;;;;;;;;;1479894;40;20440;-88
2021/04/28 01:58:27;;;;;;;5.18;3.25;;;;;;;;;;1480392;40;20404;-87
2021/04/28 01:59:28;;;;;;;5.32;2.72;;;;;;;;;;1479884;40;20404;-88
2021/04/28 02:00:29;;;;;;;3.37;3.03;;;;;;;;;;1484506;40;20462;-88
2021/04/28 02:01:31;;;;;;;4.93;2.67;;;;;;;;;;1477035;40;20412;-88
2021/04/28 02:02:32;;;;;;;3.20;2.75;;;;;;;;;;1472573;40;20473;-89
2021/04/28 02:03:33;;;;;;;5.55;3.10;;;;;;;;;;1476398;40;20436;-89
2021/04/28 02:04:35;;;;;;;5.18;2.42;;;;;;;;;;1476296;40;20421;-89
2021/04/28 02:05:36;;;;;;;5.57;2.72;;;;;;;;;;1475065;40;20410;-89
2021/04/28 02:06:39;;;;;;;5.32;3.05;;;;;;;;;;1478560;40;20404;-88
2021/04/28 02:07:41;;;;;;;5.50;2.67;;;;;;;;;;1478228;40;20428;-89
2021/04/28 02:08:42;;;;;;;4.43;3.03;;;;;;;;;;1477899;40;20396;-88
2021/04/28 02:09:43;;;;;;;4.88;3.15;;;;;;;;;;1480332;40;20406;-89
2021/04/28 02:10:45;;;;;;;3.90;3.05;;;;;;;;;;1481076;40;20406;-89
2021/04/28 02:11:47;;;;;;;7.43;2.85;;;;;;;;;;1478368;40;20453;-87
2021/04/28 02:12:48;;;;;;;7.97;3.28;;;;;;;;;;1478507;40;21158;-89
2021/04/28 02:13:50;;;;;;;4.93;3.50;;;;;;;;;;1471464;40;20420;-88
2021/04/28 02:14:53;;;;;;;4.13;3.42;;;;;;;;;;1468667;40;20445;-88
2021/04/28 02:15:54;;;;;;;3.03;2.78;;;;;;;;;;1469520;40;20461;-88
2021/04/28 02:16:56;;;;;;;4.55;3.33;;;;;;;;;;1477421;40;20494;-89
2021/04/28 02:18:00;;;;;;;6.50;3.20;;;;;;;;;;1472970;40;20417;-89
2021/04/28 02:19:03;;;;;;;6.70;3.20;;;;;;;;;;1473582;40;20414;-89
2021/04/28 02:20:06;;;;;;;5.93;3.78;;;;;;;;;;1476896;40;20419;-88
2021/04/28 02:21:07;;;;;;;6.53;3.55;;;;;;;;;;1473740;40;20433;-87
2021/04/28 02:22:09;;;;;;;4.60;3.05;;;;;;;;;;1471901;40;20401;-88
2021/04/28 02:23:14;;;;;;;5.38;3.35;;;;;;;;;;1468070;40;20499;-89
2021/04/28 02:24:15;;;;;;;5.10;3.35;;;;;;;;;;1470440;40;20413;-89
2021/04/28 02:25:16;;;;;;;3.70;3.13;;;;;;;;;;1480186;40;20459;-90
2021/04/28 02:26:19;;;;;;;4.10;3.53;;;;;;;;;;1478812;40;20422;-88
2021/04/28 02:27:20;;;;;;;7.07;3.05;;;;;;;;;;1471200;40;20413;-88
2021/04/28 02:28:21;;;;;;;5.72;2.75;;;;;;;;;;1472020;40;20409;-88
2021/04/28 02:29:22;;;;;;;3.58;3.10;;;;;;;;;;1474986;40;20424;-89
2021/04/28 02:30:24;;;;;;;5.55;3.33;;;;;;;;;;1475629;40;20411;-88
2021/04/28 02:31:27;;;;;;;4.88;3.20;;;;;;;;;;1471555;40;20428;-89
2021/04/28 02:32:28;;;;;;;4.60;3.30;;;;;;;;;;1467468;40;20426;-88
2021/04/28 02:33:29;;;;;;;4.70;3.22;;;;;;;;;;1472661;40;20417;-89
2021/04/28 02:34:30;;;;;;;5.43;2.97;;;;;;;;;;1472582;40;20783;-88
2021/04/28 02:35:31;;;;;;;3.50;3.20;;;;;;;;;;1471628;40;20402;-89
2021/04/28 02:36:34;;;;;;;4.70;3.53;;;;;;;;;;1470869;40;20453;-89
2021/04/28 02:37:36;;;;;;;5.57;2.90;;;;;;;;;;1475387;40;20704;-90
2021/04/28 02:38:41;;;;;;;4.13;2.90;;;;;;;;;;1470794;40;20412;-89
2021/04/28 02:39:43;;;;;;;7.10;3.75;;;;;;;;;;1475572;40;20427;-89
2021/04/28 02:40:44;;;;;;;4.55;3.58;;;;;;;;;;1479246;40;20492;-89
2021/04/28 02:41:46;;;;;;;4.22;3.40;;;;;;;;;;1476881;40;20400;-87
2021/04/28 02:42:48;;;;;;;3.85;3.17;;;;;;;;;;1475037;40;20496;-87
2021/04/28 02:43:49;;;;;;;5.70;3.17;;;;;;;;;;1474668;40;20457;-86
2021/04/28 02:44:51;;;;;;;4.13;2.90;;;;;;;;;;1475127;40;20396;-88
2021/04/28 02:45:53;;;;;;;3.70;3.40;;;;;;;;;;1475055;40;20427;-88
2021/04/28 02:46:55;;;;;;;7.10;3.60;;;;;;;;;;1472466;40;20423;-89
2021/04/28 02:47:59;;;;;;;6.18;3.30;;;;;;;;;;1475280;40;20408;-89
2021/04/28 02:49:01;;;;;;;5.65;3.08;;;;;;;;;;1478073;40;20403;-89
2021/04/28 02:50:05;;;;;;;7.70;3.28;;;;;;;;;;1474825;40;20412;-88
2021/04/28 02:51:07;;;;;;;5.63;3.00;;;;;;;;;;1474136;40;20436;-90
2021/04/28 02:52:08;;;;;;;6.18;3.33;;;;;;;;;;1471361;40;20433;-89
2021/04/28 02:53:12;;;;;;;5.30;3.03;;;;;;;;;;1475452;40;20424;-89
2021/04/28 02:54:14;;;;;;;4.03;2.80;;;;;;;;;;1475246;40;20836;-90
2021/04/28 02:55:15;;;;;;;4.82;3.08;;;;;;;;;;1467923;40;20423;-89
2021/04/28 02:56:16;;;;;;;3.47;3.17;;;;;;;;;;1470062;40;20457;-90
2021/04/28 02:57:20;;;;;;;5.75;3.42;;;;;;;;;;1471459;40;20390;-91
2021/04/28 02:58:22;;;;;;;8.50;3.80;;;;;;;;;;1478651;40;20485;-88
2021/04/28 02:59:23;;;;;;;3.22;2.78;;;;;;;;;;1479648;40;20406;-89
2021/04/28 03:00:25;;;;;;;6.47;3.55;;;;;;;;;;1479171;40;20418;-87
2021/04/28 03:01:28;;;;;;;5.60;3.90;;;;;;;;;;1478760;40;20394;-89
2021/04/28 03:02:29;;;;;;;4.30;3.33;;;;;;;;;;1477227;40;20400;-88
2021/04/28 03:03:32;;;;;;;3.92;2.97;;;;;;;;;;1470547;40;20467;-87
2021/04/28 03:04:36;;;;;;;4.43;3.45;;;;;;;;;;1473172;40;20414;-88
2021/04/28 03:05:37;;;;;;;5.72;3.10;;;;;;;;;;1475729;40;20400;-88
2021/04/28 03:06:38;;;;;;;6.20;3.00;;;;;;;;;;1471690;40;20433;-89
2021/04/28 03:07:39;;;;;;;5.30;3.27;;;;;;;;;;1473874;40;20398;-88
2021/04/28 03:08:41;;;;;;;5.70;3.50;;;;;;;;;;1475685;40;20411;-88
2021/04/28 03:09:42;;;;;;;5.80;3.63;;;;;;;;;;1476670;40;20475;-87
2021/04/28 03:10:44;;;;;;;5.72;3.17;;;;;;;;;;1478420;40;20407;-87
2021/04/28 03:11:45;;;;;;;3.75;3.13;;;;;;;;;;1473837;40;20417;-89
2021/04/28 03:12:47;;;;;;;8.77;3.60;;;;;;;;;;1472929;40;20680;-87
2021/04/28 03:13:48;;;;;;;4.50;3.38;;;;;;;;;;1476516;40;20478;-87
2021/04/28 03:14:49;;;;;;;10.27;3.50;;;;;;;;;;1471502;40;20767;-86
2021/04/28 03:15:50;;;;;;;6.43;3.33;;;;;;;;;;1474489;40;20762;-88
2021/04/28 03:16:52;;;;;;;7.95;3.78;;;;;;;;;;1479432;40;20426;-88
2021/04/28 03:17:53;;;;;;;4.22;3.55;;;;;;;;;;1470904;40;20465;-89
2021/04/28 03:18:54;;;;;;;4.45;3.63;;;;;;;;;;1471213;40;20402;-88
2021/04/28 03:19:56;;;;;;;4.47;3.47;;;;;;;;;;1475319;40;20427;-89
2021/04/28 03:20:59;;;;;;;6.70;3.55;;;;;;;;;;1471471;40;20390;-87
2021/04/28 03:22:00;;;;;;;4.63;3.13;;;;;;;;;;1475631;40;20411;-89
2021/04/28 03:23:02;;;;;;;4.82;3.10;;;;;;;;;;1470542;40;20686;-88
2021/04/28 03:24:03;;;;;;;5.68;3.97;;;;;;;;;;1467430;40;20438;-87
2021/04/28 03:25:05;;;;;;;5.55;3.30;;;;;;;;;;1467043;40;20442;-88
2021/04/28 03:26:10;;;;;;;4.03;3.20;;;;;;;;;;1467316;40;20512;-88
2021/04/28 03:27:12;;;;;;;4.65;3.45;;;;;;;;;;1474848;40;20870;-87
2021/04/28 03:28:13;;;;;;;7.70;4.07;;;;;;;;;;1481974;40;20401;-88
2021/04/28 03:29:14;;;;;;;5.60;4.07;;;;;;;;;;1475303;40;20741;-88
2021/04/28 03:30:15;;;;;;;9.52;3.67;;;;;;;;;;1468722;40;20419;-88
2021/04/28 03:31:16;;;;;;;7.05;3.38;;;;;;;;;;1468714;40;20419;-87
2021/04/28 03:32:21;;;;;;;4.65;3.53;;;;;;;;;;1471255;40;20402;-89
2021/04/28 03:33:22;;;;;;;7.75;3.70;;;;;;;;;;1467317;40;20431;-88
2021/04/28 03:34:23;;;;;;;6.32;3.53;;;;;;;;;;1471549;40;20405;-88
2021/04/28 03:35:24;;;;;;;5.15;3.45;;;;;;;;;;1471641;40;20440;-89
2021/04/28 03:36:25;;;;;;;4.82;3.45;;;;;;;;;;1475558;40;20454;-89
2021/04/28 03:37:26;;;;;;;5.18;3.80;;;;;;;;;;1478895;40;20488;-88
2021/04/28 03:38:29;;;;;;;5.82;3.67;;;;;;;;;;1474293;40;20693;-89
2021/04/28 03:39:32;;;;;;;6.18;3.47;;;;;;;;;;1475560;40;20435;-88
2021/04/28 03:40:33;;;;;;;7.87;3.33;;;;;;;;;;1475088;40;20601;-88
2021/04/28 03:41:34;;;;;;;5.80;3.42;;;;;;;;;;1477469;40;20401;-89
2021/04/28 03:42:36;;;;;;;3.78;3.38;;;;;;;;;;1474662;40;20398;-88
2021/04/28 03:43:37;;;;;;;6.85;3.13;;;;;;;;;;1475153;40;20782;-87
2021/04/28 03:44:38;;;;;;;3.83;3.42;;;;;;;;;;1479940;40;20424;-86
2021/04/28 03:45:39;;;;;;;6.53;3.88;;;;;;;;;;1484024;40;20417;-88
2021/04/28 03:46:40;;;;;;;8.77;3.85;;;;;;;;;;1479511;40;20443;-88
2021/04/28 03:47:41;;;;;;;5.85;3.28;;;;;;;;;;1476009;40;20423;-87
2021/04/28 03:48:42;;;;;;;4.97;3.65;;;;;;;;;;1480021;40;20415;-87
2021/04/28 03:49:44;;;;;;;4.57;3.70;;;;;;;;;;1475733;40;20461;-87
2021/04/28 03:50:45;;;;;;;5.20;3.42;;;;;;;;;;1479935;40;20423;-87
2021/04/28 03:51:46;;;;;;;6.68;3.50;;;;;;;;;;1483900;40;20386;-88
2021/04/28 03:52:48;;;;;;;4.90;3.50;;;;;;;;;;1484420;40;20464;-88
2021/04/28 03:53:51;;;;;;;5.72;3.42;;;;;;;;;;1480466;40;20400;-86
2021/04/28 03:54:52;;;;;;;5.50;3.72;;;;;;;;;;1484598;40;20390;-87
2021/04/28 03:55:53;;;;;;;6.28;3.80;;;;;;;;;;1484587;40;20410;-88
2021/04/28 03:56:54;;;;;;;3.90;3.50;;;;;;;;;;1481476;40;20412;-86
2021/04/28 03:57:55;;;;;;;6.00;3.65;;;;;;;;;;1474526;40;20406;-87
2021/04/28 03:58:56;;;;;;;6.28;3.67;;;;;;;;;;1470837;40;20420;-87
2021/04/28 03:59:57;;;;;;;6.45;3.33;;;;;;;;;;1475191;40;20402;-89
2021/04/28 04:00:58;;;;;;;5.28;3.92;;;;;;;;;;1475253;40;20775;-86
2021/04/28 04:01:59;;;;;;;5.68;3.58;;;;;;;;;;1479509;40;20412;-87
2021/04/28 04:03:01;;;;;;;4.22;3.50;;;;;;;;;;1483592;40;20426;-85
2021/04/28 04:04:02;;;;;;;4.40;3.72;;;;;;;;;;1480067;40;20402;-89
2021/04/28 04:05:04;;;;;;;5.03;3.85;;;;;;;;;;1478397;40;20465;-89
2021/04/28 04:06:05;;;;;;;5.70;3.42;;;;;;;;;;1480074;40;20930;-89
2021/04/28 04:07:06;;;;;;;4.18;3.47;;;;;;;;;;1479970;40;20673;-89
2021/04/28 04:08:07;;;;;;;7.32;3.88;;;;;;;;;;1479946;40;20404;-88
2021/04/28 04:09:09;;;;;;;5.72;3.33;;;;;;;;;;1471537;40;20394;-87
2021/04/28 04:10:10;;;;;;;9.25;4.30;;;;;;;;;;1470759;40;20427;-88
2021/04/28 04:11:11;;;;;;;5.72;3.53;;;;;;;;;;1482173;40;20402;-86
2021/04/28 04:12:12;;;;;;;4.68;3.58;;;;;;;;;;1475516;40;20405;-86
2021/04/28 04:13:13;;;;;;;4.97;3.70;;;;;;;;;;1470682;40;20427;-87
2021/04/28 04:14:15;;;;;;;6.40;3.70;;;;;;;;;;1479360;40;20396;-88
2021/04/28 04:15:16;;;;;;;5.60;3.70;;;;;;;;;;1481672;40;20406;-89
2021/04/28 04:16:18;;;;;;;5.95;3.83;;;;;;;;;;1481619;40;20414;-87
2021/04/28 04:17:19;;;;;;;4.18;3.58;;;;;;;;;;1478084;40;20420;-87
2021/04/28 04:18:20;;;;;;;4.18;3.78;;;;;;;;;;1475308;40;20406;-87
2021/04/28 04:19:21;;;;;;;8.32;4.03;;;;;;;;;;1480067;40;20468;-87
2021/04/28 04:20:23;;;;;;;6.53;3.22;;;;;;;;;;1480318;40;20439;-85
2021/04/28 04:21:24;;;;;;;3.42;3.13;;;;;;;;;;1480581;40;20415;-86
2021/04/28 04:22:25;;;;;;;7.50;4.68;;;;;;;;;;1476486;40;20428;-86
2021/04/28 04:23:26;;;;;;;6.23;3.43;;;;;;;;;;1472363;40;20419;-87
2021/04/28 04:24:27;;;;;;;5.55;3.72;;;;;;;;;;1480465;40;20412;-88
2021/04/28 04:25:28;;;;;;;4.07;3.63;;;;;;;;;;1480728;40;20415;-88
2021/04/28 04:26:29;;;;;;;5.80;3.92;;;;;;;;;;1472641;40;20418;-89
2021/04/28 04:27:30;;;;;;;7.13;3.80;;;;;;;;;;1472660;40;20419;-88
2021/04/28 04:28:31;;;;;;;7.40;3.67;;;;;;;;;;1478793;40;20434;-90
2021/04/28 04:29:32;;;;;;;4.97;3.70;;;;;;;;;;1480596;40;20823;-89
2021/04/28 04:30:33;;;;;;;6.60;3.72;;;;;;;;;;1472280;40;20394;-89
2021/04/28 04:31:34;;;;;;;5.10;3.60;;;;;;;;;;1476237;40;20498;-91
2021/04/28 04:32:36;;;;;;;7.47;3.80;;;;;;;;;;1472468;40;20418;-88
2021/04/28 04:33:37;;;;;;;3.80;3.50;;;;;;;;;;1469182;40;20471;-90
2021/04/28 04:34:39;;;;;;;4.13;3.40;;;;;;;;;;1476374;40;20646;-89
2021/04/28 04:35:40;;;;;;;6.30;4.22;;;;;;;;;;1476098;40;20403;-88
2021/04/28 04:36:41;;;;;;;7.03;4.25;;;;;;;;;;1476153;40;20404;-88
2021/04/28 04:37:42;;;;;;;7.15;3.65;;;;;;;;;;1471218;40;20836;-89
2021/04/28 04:38:43;;;;;;;5.57;3.78;;;;;;;;;;1472569;40;20413;-89
2021/04/28 04:39:44;;;;;;;4.32;3.60;;;;;;;;;;1480908;40;20811;-88
2021/04/28 04:40:45;;;;;;;5.30;3.65;;;;;;;;;;1473091;40;20413;-88
2021/04/28 04:41:46;;;;;;;5.10;3.75;;;;;;;;;;1474374;40;20409;-88
2021/04/28 04:42:47;;;;;;;4.78;3.60;;;;;;;;;;1473964;40;20496;-88
2021/04/28 04:43:48;;;;;;;4.60;3.78;;;;;;;;;;1478159;40;20421;-89
2021/04/28 04:44:50;;;;;;;6.38;4.10;;;;;;;;;;1477756;40;20404;-88
2021/04/28 04:45:51;;;;;;;4.30;3.90;;;;;;;;;;1474513;40;20425;-87
2021/04/28 04:46:52;;;;;;;4.40;3.40;;;;;;;;;;1471597;40;20420;-88
2021/04/28 04:47:56;;;;;;;7.07;3.67;;;;;;;;;;1474526;40;20477;-88
2021/04/28 04:48:57;;;;;;;6.68;4.65;;;;;;;;;;1470906;40;20427;-88
2021/04/28 04:49:58;;;;;;;8.75;4.10;;;;;;;;;;1475315;40;20417;-86
2021/04/28 04:51:00;;;;;;;7.75;3.55;;;;;;;;;;1482626;40;20421;-89
2021/04/28 04:52:01;;;;;;;4.38;3.95;;;;;;;;;;1481908;40;20417;-90
2021/04/28 04:53:04;;;;;;;5.63;3.72;;;;;;;;;;1482823;40;20433;-89
2021/04/28 04:54:05;;;;;;;4.50;3.60;;;;;;;;;;1482614;40;20409;-89
2021/04/28 04:55:06;;;;;;;7.22;3.35;;;;;;;;;;1482831;40;20862;-89
2021/04/28 04:56:09;;;;;;;5.65;3.70;;;;;;;;;;1479802;40;20423;-90
2021/04/28 04:57:10;;;;;;;6.47;3.70;;;;;;;;;;1477428;40;20420;-90
2021/04/28 04:58:11;;;;;;;5.88;4.13;;;;;;;;;;1480572;40;20395;-89
2021/04/28 04:59:13;;;;;;;5.65;3.65;;;;;;;;;;1480844;40;20706;-90
2021/04/28 05:00:15;;;;;;;4.82;3.67;;;;;;;;;;1476056;40;20412;-89
2021/04/28 05:01:17;;;;;;;5.65;4.10;;;;;;;;;;1479989;40;20426;-90
2021/04/28 05:02:19;;;;;;;6.78;4.60;;;;;;;;;;1476268;40;20412;-89
2021/04/28 05:03:20;;;;;;;6.35;3.88;;;;;;;;;;1472706;40;20480;-88
2021/04/28 05:04:21;;;;;;;7.72;4.13;;;;;;;;;;1476785;40;20531;-89
2021/04/28 05:05:22;;;;;;;16.83;4.30;;;;;;;;;;1477392;40;20434;-90
2021/04/28 05:06:23;;;;;;;6.95;4.45;;;;;;;;;;1477612;40;20411;-89
2021/04/28 05:07:24;;;;;;;5.75;3.70;;;;;;;;;;1475620;40;20413;-89
2021/04/28 05:08:25;;;;;;;7.22;4.10;;;;;;;;;;1476020;40;20404;-90
2021/04/28 05:09:26;;;;;;;6.63;3.88;;;;;;;;;;1479266;40;20401;-90
2021/04/28 05:10:27;;;;;;;4.80;3.78;;;;;;;;;;1475157;40;20416;-89
2021/04/28 05:11:29;;;;;;;6.07;3.95;;;;;;;;;;1473395;40;20432;-89
2021/04/28 05:12:30;;;;;;;3.83;3.53;;;;;;;;;;1475604;40;20410;-87
2021/04/28 05:13:31;;;;;;;7.95;3.92;;;;;;;;;;1471055;40;20429;-90
2021/04/28 05:14:32;;;;;;;5.10;3.83;;;;;;;;;;1475995;40;20424;-89
2021/04/28 05:15:33;;;;;;;6.18;3.53;;;;;;;;;;1471498;40;20430;-89
2021/04/28 05:16:34;;;;;;;9.52;3.45;;;;;;;;;;1475743;40;20404;-89
2021/04/28 05:17:35;;;;;;;7.47;3.95;;;;;;;;;;1475500;40;20453;-89
2021/04/28 05:18:37;;;;;;;5.05;3.67;;;;;;;;;;1475087;40;20427;-90
2021/04/28 05:19:38;;;;;;;6.10;4.00;;;;;;;;;;1475022;40;20921;-90
2021/04/28 05:20:39;;;;;;;6.25;3.75;;;;;;;;;;1471436;40;20406;-89
2021/04/28 05:21:41;;;;;;;5.10;4.07;;;;;;;;;;1475446;40;20415;-90
2021/04/28 05:22:42;;;;;;;7.93;4.20;;;;;;;;;;1475348;40;20404;-89
2021/04/28 05:23:46;;;;;;;8.75;4.57;;;;;;;;;;1470458;40;20417;-89
2021/04/28 05:24:46;;;;;;;5.75;3.97;;;;;;;;;;1474339;40;20403;-89
2021/04/28 05:25:48;;;;;;;5.85;3.78;;;;;;;;;;1471327;40;20433;-88
2021/04/28 05:26:49;;;;;;;5.00;3.63;;;;;;;;;;1472431;40;20412;-87
2021/04/28 05:27:50;;;;;;;5.57;4.10;;;;;;;;;;1472371;40;20435;-87
2021/04/28 05:28:51;;;;;;;5.03;3.72;;;;;;;;;;1475817;40;20419;-86
2021/04/28 05:29:53;;;;;;;6.13;3.70;;;;;;;;;;1474732;40;20416;-87
2021/04/28 05:30:54;;;;;;;8.60;4.28;;;;;;;;;;1473055;40;20514;-85
2021/04/28 05:31:55;;;;;;;5.47;3.80;;;;;;;;;;1467131;40;20479;-89
2021/04/28 05:32:57;;;;;;;6.80;4.85;;;;;;;;;;1471786;40;20410;-89
2021/04/28 05:33:59;;;;;;;6.07;4.13;;;;;;;;;;1477974;40;20398;-90
2021/04/28 05:35:00;;;;;;;6.07;4.07;;;;;;;;;;1476471;40;20415;-90
2021/04/28 05:36:00;;;;;;;6.28;3.40;;;;;;;;;;1476155;40;20400;-90
2021/04/28 05:37:04;;;;;;;9.52;3.70;;;;;;;;;;1476244;40;20418;-88
2021/04/28 05:38:05;;;;;;;6.93;4.00;;;;;;;;;;1478031;40;20504;-88
2021/04/28 05:39:06;;;;;;;6.40;4.68;;;;;;;;;;1471530;40;20691;-90
2021/04/28 05:40:08;;;;;;;6.03;3.50;;;;;;;;;;1476934;40;20396;-90
2021/04/28 05:41:09;;;;;;;8.27;3.65;;;;;;;;;;1480788;40;20406;-88
2021/04/28 05:42:11;;;;;;;11.27;3.90;;;;;;;;;;1477167;40;20408;-90
2021/04/28 05:43:12;;;;;;;4.78;3.80;;;;;;;;;;1477567;40;20509;-89
2021/04/28 05:44:13;;;;;;;6.15;3.80;;;;;;;;;;1478322;40;20450;-90
2021/04/28 05:45:15;;;;;;;9.38;4.57;;;;;;;;;;1478518;40;20423;-90
2021/04/28 05:46:15;;;;;;;6.80;3.88;;;;;;;;;;1478298;40;20415;-90
2021/04/28 05:47:16;;;;;;;5.68;3.80;;;;;;;;;;1479097;40;20408;-90
2021/04/28 05:48:18;;;;;;;7.10;4.07;;;;;;;;;;1466924;40;20419;-90
2021/04/28 05:49:19;;;;;;;5.93;3.88;;;;;;;;;;1467644;40;20677;-91
2021/04/28 05:50:20;;;;;;;7.47;4.25;;;;;;;;;;1467417;40;20403;-90
2021/04/28 05:51:25;;;;;;;6.40;3.83;;;;;;;;;;1470946;40;20745;-90
2021/04/28 05:52:26;;;;;;;5.97;4.25;;;;;;;;;;1476169;40;20432;-90
2021/04/28 05:53:27;;;;;;;5.00;3.72;;;;;;;;;;1479014;40;20422;-90
2021/04/28 05:54:28;;;;;;;6.80;3.93;;;;;;;;;;1475498;40;20530;-89
2021/04/28 05:55:29;;;;;;;7.93;4.15;;;;;;;;;;1474800;40;20408;-90
2021/04/28 05:56:30;;;;;;;14.93;4.78;;;;;;;;;;1468777;40;20426;-89
2021/04/28 05:57:32;;;;;;;10.90;4.25;;;;;;;;;;1474628;40;20416;-89
2021/04/28 05:58:34;;;;;;;6.47;3.85;;;;;;;;;;1475511;40;20400;-90
2021/04/28 05:59:35;;;;;;;7.38;4.10;;;;;;;;;;1471624;40;20731;-88
2021/04/28 06:00:36;;;;;;;10.23;3.90;;;;;;;;;;1475995;40;20416;-90
2021/04/28 06:01:37;;;;;;;9.80;3.75;;;;;;;;;;1474521;40;20400;-90
2021/04/28 06:02:39;;;;;;;9.10;4.07;;;;;;;;;;1471619;40;20997;-89
2021/04/28 06:03:40;;;;;;;10.20;4.10;;;;;;;;;;1473075;40;20466;-89
2021/04/28 06:04:41;;;;;;;8.20;4.03;;;;;;;;;;1479069;40;20418;-90
2021/04/28 06:05:42;;;;;;;9.98;4.03;;;;;;;;;;1475529;40;20432;-89
2021/04/28 06:06:43;;;;;;;9.77;4.18;;;;;;;;;;1467165;40;20399;-90
2021/04/28 06:07:44;;;;;;;7.15;4.13;;;;;;;;;;1470172;40;20410;-88
2021/04/28 06:08:47;;;;;;;12.40;4.70;;;;;;;;;;1474977;40;20404;-87
2021/04/28 06:09:48;;;;;;;8.63;4.38;;;;;;;;;;1475004;40;20419;-89